createdAt,value
2018-08-13T00:01:22.718Z,94.70
2018-08-13T00:03:50.380Z,95.00
2018-08-13T00:06:17.962Z,95.00
2018-08-13T00:08:45.530Z,95.00
2018-08-13T00:11:13.004Z,95.40
2018-08-13T00:13:40.904Z,95.40
2018-08-13T00:16:08.551Z,95.40
2018-08-13T00:18:36.068Z,95.50
2018-08-13T00:21:03.836Z,96.00
2018-08-13T00:23:31.451Z,95.40
2018-08-13T00:25:59.177Z,95.80
2018-08-13T00:28:26.805Z,95.80
2018-08-13T00:30:54.452Z,96.10
2018-08-13T00:33:21.997Z,96.00
2018-08-13T00:35:49.411Z,96.00
2018-08-13T00:38:17.092Z,96.00
2018-08-13T00:40:44.834Z,95.90
2018-08-13T00:43:13.136Z,96.20
2018-08-13T00:45:40.740Z,95.70
2018-08-13T00:48:08.893Z,96.10
2018-08-13T00:50:36.354Z,96.10
2018-08-13T00:53:03.948Z,96.20
2018-08-13T00:55:31.396Z,96.40
2018-08-13T00:57:58.956Z,96.40
2018-08-13T01:00:26.420Z,96.50
2018-08-13T01:02:54.021Z,96.50
2018-08-13T01:05:21.573Z,96.50
2018-08-13T01:07:49.167Z,96.50
2018-08-13T01:10:18.630Z,96.40
2018-08-13T01:12:46.202Z,96.40
2018-08-13T01:15:14.973Z,96.50
2018-08-13T01:17:43.936Z,96.40
2018-08-13T01:20:12.702Z,96.50
2018-08-13T01:22:40.255Z,96.50
2018-08-13T01:25:10.290Z,96.40
2018-08-13T01:27:37.952Z,96.70
2018-08-13T01:30:05.838Z,96.50
2018-08-13T01:32:33.337Z,96.50
2018-08-13T01:35:00.888Z,96.60
2018-08-13T01:37:28.558Z,96.50
2018-08-13T01:39:56.927Z,96.90
2018-08-13T01:42:24.775Z,97.50
2018-08-13T01:44:52.361Z,97.30
2018-08-13T01:47:20.528Z,97.20
2018-08-13T01:49:48.021Z,97.40
2018-08-13T01:52:16.430Z,97.40
2018-08-13T01:54:43.974Z,97.60
2018-08-13T01:57:11.718Z,97.60
2018-08-13T01:59:40.090Z,97.90
2018-08-13T02:02:07.779Z,97.90
2018-08-13T02:04:35.342Z,97.50
2018-08-13T02:07:03.704Z,97.20
2018-08-13T02:09:35.877Z,97.20
2018-08-13T02:12:04.040Z,97.10
2018-08-13T02:14:32.285Z,97.40
2018-08-13T02:17:00.357Z,97.50
2018-08-13T02:19:28.648Z,97.80
2018-08-13T02:21:56.499Z,97.40
2018-08-13T02:24:23.992Z,97.50
2018-08-13T02:26:51.742Z,97.40
2018-08-13T02:29:19.237Z,97.20
2018-08-13T02:31:47.267Z,97.20
2018-08-13T02:34:15.810Z,97.30
2018-08-13T02:36:43.416Z,97.40
2018-08-13T02:39:11.901Z,97.40
2018-08-13T02:41:39.877Z,97.50
2018-08-13T02:44:07.557Z,97.60
2018-08-13T02:46:34.983Z,97.50
2018-08-13T02:49:02.471Z,97.50
2018-08-13T02:51:30.387Z,97.60
2018-08-13T02:53:57.784Z,97.70
2018-08-13T02:56:25.197Z,97.80
2018-08-13T02:58:52.696Z,97.80
2018-08-13T03:01:20.131Z,98.00
2018-08-13T03:03:47.665Z,98.20
2018-08-13T03:06:15.353Z,98.20
2018-08-13T03:08:42.939Z,98.20
2018-08-13T03:11:10.504Z,98.20
2018-08-13T03:13:38.085Z,98.20
2018-08-13T03:16:05.592Z,98.20
2018-08-13T03:18:32.972Z,98.20
2018-08-13T03:21:00.363Z,98.30
2018-08-13T03:23:27.753Z,98.40
2018-08-13T03:25:55.123Z,98.30
2018-08-13T03:28:22.495Z,98.20
2018-08-13T03:30:49.872Z,98.10
2018-08-13T03:33:17.353Z,98.10
2018-08-13T03:35:44.721Z,98.20
2018-08-13T03:38:12.111Z,98.20
2018-08-13T03:40:39.515Z,98.30
2018-08-13T03:43:06.916Z,98.50
2018-08-13T03:45:34.304Z,98.50
2018-08-13T03:48:01.663Z,98.70
2018-08-13T03:50:29.027Z,98.60
2018-08-13T03:52:56.440Z,98.70
2018-08-13T03:55:24.471Z,98.60
2018-08-13T03:57:51.903Z,98.50
2018-08-13T04:00:19.283Z,98.30
2018-08-13T04:02:46.689Z,98.40
2018-08-13T04:05:14.439Z,98.30
2018-08-13T04:07:41.816Z,98.20
2018-08-13T04:10:11.207Z,98.20
2018-08-13T04:12:40.374Z,98.30
2018-08-13T04:15:08.976Z,98.50
2018-08-13T04:17:36.545Z,98.50
2018-08-13T04:20:06.686Z,98.50
2018-08-13T04:22:34.277Z,98.40
2018-08-13T04:25:01.993Z,98.50
2018-08-13T04:27:29.443Z,98.50
2018-08-13T04:29:56.847Z,98.60
2018-08-13T04:32:24.212Z,98.80
2018-08-13T04:34:52.075Z,98.90
2018-08-13T04:37:19.483Z,99.00
2018-08-13T04:39:46.869Z,99.10
2018-08-13T04:42:14.286Z,99.10
2018-08-13T04:44:41.648Z,99.20
2018-08-13T04:47:08.993Z,99.30
2018-08-13T04:49:37.325Z,99.20
2018-08-13T04:52:04.710Z,99.30
2018-08-13T04:54:32.046Z,99.30
2018-08-13T04:56:59.507Z,99.30
2018-08-13T04:59:26.964Z,99.30
2018-08-13T05:01:54.407Z,99.50
2018-08-13T05:04:21.824Z,99.40
2018-08-13T05:06:49.229Z,99.50
2018-08-13T05:09:16.606Z,99.30
2018-08-13T05:11:44.016Z,99.30
2018-08-13T05:14:17.106Z,99.20
2018-08-13T05:16:44.460Z,99.30
2018-08-13T05:19:11.813Z,99.10
2018-08-13T05:21:39.202Z,98.90
2018-08-13T05:24:06.596Z,98.70
2018-08-13T05:26:33.986Z,98.80
2018-08-13T05:29:01.354Z,98.80
2018-08-13T05:31:28.750Z,98.80
2018-08-13T05:33:56.135Z,98.70
2018-08-13T05:36:23.542Z,98.50
2018-08-13T05:38:50.948Z,98.30
2018-08-13T05:41:18.333Z,98.30
2018-08-13T05:43:45.738Z,98.10
2018-08-13T05:46:13.151Z,97.90
2018-08-13T05:48:40.571Z,97.70
2018-08-13T05:51:07.954Z,97.70
2018-08-13T05:53:35.326Z,97.60
2018-08-13T05:56:02.716Z,97.60
2018-08-13T05:58:30.088Z,97.40
2018-08-13T06:00:57.444Z,97.50
2018-08-13T06:03:24.863Z,97.40
2018-08-13T06:05:52.264Z,97.30
2018-08-13T06:08:19.655Z,97.00
2018-08-13T06:10:47.017Z,96.70
2018-08-13T06:13:14.528Z,96.20
2018-08-13T06:15:41.986Z,95.80
2018-08-13T06:18:09.411Z,95.40
2018-08-13T06:20:36.751Z,94.80
2018-08-13T06:23:04.484Z,93.80
2018-08-13T06:25:31.902Z,92.80
2018-08-13T06:28:00.066Z,92.20
2018-08-13T06:30:27.417Z,92.00
2018-08-13T06:32:54.811Z,92.40
2018-08-13T06:35:22.263Z,92.70
2018-08-13T06:37:49.688Z,93.20
2018-08-13T06:40:17.055Z,93.30
2018-08-13T06:42:44.471Z,93.40
2018-08-13T06:45:11.848Z,93.60
2018-08-13T06:47:41.416Z,93.70
2018-08-13T06:50:10.846Z,93.70
2018-08-13T06:52:38.257Z,93.90
2018-08-13T06:55:05.856Z,94.00
2018-08-13T06:57:33.410Z,94.50
2018-08-13T07:00:00.767Z,93.90
2018-08-13T07:02:28.196Z,94.20
2018-08-13T07:04:55.590Z,93.70
2018-08-13T07:07:22.988Z,93.40
2018-08-13T07:09:50.359Z,93.40
2018-08-13T07:12:17.743Z,93.40
2018-08-13T07:14:45.138Z,93.50
2018-08-13T07:17:12.553Z,93.50
2018-08-13T07:19:39.960Z,93.50
2018-08-13T07:22:07.430Z,93.70
2018-08-13T07:24:34.791Z,93.80
2018-08-13T07:27:02.174Z,93.60
2018-08-13T07:29:29.754Z,93.80
2018-08-13T07:31:57.144Z,94.30
2018-08-13T07:34:24.519Z,94.00
2018-08-13T07:36:51.935Z,93.30
2018-08-13T07:39:19.318Z,93.00
2018-08-13T07:41:46.713Z,92.50
2018-08-13T07:44:14.082Z,92.20
2018-08-13T07:46:41.495Z,92.30
2018-08-13T07:49:08.856Z,92.20
2018-08-13T07:51:36.283Z,92.20
2018-08-13T07:54:03.998Z,92.50
2018-08-13T07:56:31.374Z,92.30
2018-08-13T07:58:58.735Z,92.40
2018-08-13T08:01:26.111Z,92.60
2018-08-13T08:03:53.503Z,92.70
2018-08-13T08:06:20.890Z,93.10
2018-08-13T08:08:48.240Z,93.20
2018-08-13T08:11:15.647Z,93.40
2018-08-13T08:13:43.000Z,93.00
2018-08-13T08:16:10.383Z,93.20
2018-08-13T08:18:37.749Z,93.30
2018-08-13T08:21:05.195Z,93.10
2018-08-13T08:23:32.551Z,93.10
2018-08-13T08:25:59.900Z,94.10
2018-08-13T08:28:27.263Z,93.40
2018-08-13T08:30:54.652Z,93.30
2018-08-13T08:33:22.047Z,93.60
2018-08-13T08:35:49.412Z,93.60
2018-08-13T08:38:16.793Z,93.30
2018-08-13T08:40:44.198Z,93.40
2018-08-13T08:43:11.513Z,93.40
2018-08-13T08:45:38.934Z,93.10
2018-08-13T08:48:07.568Z,91.90
2018-08-13T08:50:35.026Z,91.10
2018-08-13T08:53:02.412Z,90.50
2018-08-13T08:55:29.793Z,89.80
2018-08-13T08:57:57.160Z,89.00
2018-08-13T09:00:24.646Z,89.30
2018-08-13T09:02:52.267Z,89.00
2018-08-13T09:05:19.680Z,89.50
2018-08-13T09:07:47.271Z,90.00
2018-08-13T09:10:14.687Z,90.20
2018-08-13T09:12:42.071Z,91.60
2018-08-13T09:15:11.517Z,91.10
2018-08-13T09:17:51.560Z,91.50
2018-08-13T09:20:30.501Z,91.50
2018-08-13T09:23:09.445Z,92.00
2018-08-13T09:25:48.331Z,92.60
2018-08-13T09:28:27.239Z,92.80
2018-08-13T09:31:06.272Z,92.90
2018-08-13T09:33:45.242Z,93.30
2018-08-13T09:36:12.696Z,92.30
2018-08-13T09:38:40.082Z,91.20
2018-08-13T09:41:07.435Z,91.30
2018-08-13T09:43:34.836Z,90.50
2018-08-13T09:46:02.210Z,90.20
2018-08-13T09:48:29.962Z,90.00
2018-08-13T09:50:57.328Z,89.90
2018-08-13T09:53:24.701Z,89.70
2018-08-13T09:55:52.091Z,89.30
2018-08-13T09:58:19.512Z,88.90
2018-08-13T10:00:52.565Z,89.30
2018-08-13T10:03:19.977Z,89.50
2018-08-13T10:05:47.347Z,89.30
2018-08-13T10:08:14.756Z,89.00
2018-08-13T10:10:42.160Z,88.60
2018-08-13T10:13:09.539Z,88.30
2018-08-13T10:15:36.941Z,87.90
2018-08-13T10:18:04.342Z,87.50
2018-08-13T10:20:31.689Z,86.70
2018-08-13T10:22:59.108Z,86.00
2018-08-13T10:25:26.456Z,86.00
2018-08-13T10:27:53.804Z,86.00
2018-08-13T10:30:21.231Z,86.30
2018-08-13T10:32:48.575Z,86.70
2018-08-13T10:35:15.976Z,87.00
2018-08-13T10:37:43.390Z,86.70
2018-08-13T10:40:14.703Z,87.10
2018-08-13T10:42:42.065Z,86.00
2018-08-13T10:45:09.446Z,86.20
2018-08-13T10:47:36.812Z,86.70
2018-08-13T10:50:05.673Z,87.60
2018-08-13T10:52:33.510Z,88.30
2018-08-13T10:55:00.936Z,89.30
2018-08-13T10:57:28.332Z,89.10
2018-08-13T10:59:55.696Z,89.10
2018-08-13T11:02:23.056Z,88.10
2018-08-13T11:04:50.431Z,87.30
2018-08-13T11:07:17.817Z,86.60
2018-08-13T11:09:45.189Z,87.20
2018-08-13T11:12:12.566Z,86.50
2018-08-13T11:14:39.912Z,87.20
2018-08-13T11:17:07.286Z,87.00
2018-08-13T11:19:34.691Z,87.60
2018-08-13T11:22:02.433Z,87.10
2018-08-13T11:24:29.795Z,86.40
2018-08-13T11:26:57.155Z,86.20
2018-08-13T11:29:24.535Z,87.10
2018-08-13T11:31:52.306Z,88.80
2018-08-13T11:34:19.667Z,89.10
2018-08-13T11:36:47.093Z,90.40
2018-08-13T11:39:14.465Z,91.40
2018-08-13T11:41:41.856Z,91.20
2018-08-13T11:44:09.395Z,92.00
2018-08-13T11:46:36.791Z,92.40
2018-08-13T11:49:04.528Z,92.30
2018-08-13T11:51:32.028Z,92.60
2018-08-13T11:53:59.400Z,92.60
2018-08-13T11:56:27.179Z,93.00
2018-08-13T11:58:54.565Z,92.90
2018-08-13T12:01:21.932Z,93.00
2018-08-13T12:03:49.348Z,93.30
2018-08-13T12:06:16.706Z,93.80
2018-08-13T12:08:44.072Z,93.70
2018-08-13T12:11:11.484Z,93.60
2018-08-13T12:13:38.878Z,93.50
2018-08-13T12:16:06.447Z,92.90
2018-08-13T12:18:33.816Z,91.70
2018-08-13T12:21:01.229Z,92.10
2018-08-13T12:23:28.608Z,91.00
2018-08-13T12:25:55.976Z,90.60
2018-08-13T12:28:23.631Z,90.40
2018-08-13T12:30:50.999Z,90.20
2018-08-13T12:33:18.417Z,91.00
2018-08-13T12:35:46.031Z,90.20
2018-08-13T12:38:13.512Z,90.80
2018-08-13T12:40:41.259Z,90.20
2018-08-13T12:43:08.662Z,90.20
2018-08-13T12:45:36.051Z,91.40
2018-08-13T12:48:03.795Z,90.90
2018-08-13T12:50:31.187Z,90.90
2018-08-13T12:52:58.556Z,92.20
2018-08-13T12:55:25.972Z,91.40
2018-08-13T12:57:53.340Z,91.30
2018-08-13T13:00:21.084Z,91.30
2018-08-13T13:02:48.524Z,90.90
2018-08-13T13:05:16.897Z,90.30
2018-08-13T13:07:44.279Z,90.50
2018-08-13T13:10:13.118Z,88.80
2018-08-13T13:12:41.528Z,88.00
2018-08-13T13:15:13.307Z,86.70
2018-08-13T13:17:40.738Z,87.10
2018-08-13T13:20:10.304Z,87.40
2018-08-13T13:22:37.739Z,87.70
2018-08-13T13:25:06.282Z,88.10
2018-08-13T13:27:33.687Z,87.60
2018-08-13T13:30:01.152Z,87.20
2018-08-13T13:32:28.828Z,86.90
2018-08-13T13:34:56.413Z,87.80
2018-08-13T13:37:23.999Z,87.50
2018-08-13T13:39:52.617Z,86.30
2018-08-13T13:42:20.128Z,86.30
2018-08-13T13:44:47.736Z,86.10
2018-08-13T13:47:15.165Z,86.00
2018-08-13T13:49:42.832Z,85.80
2018-08-13T13:52:10.241Z,85.90
2018-08-13T13:54:37.880Z,85.90
2018-08-13T13:57:05.372Z,86.10
2018-08-13T13:59:32.760Z,86.30
2018-08-13T14:02:00.378Z,86.40
2018-08-13T14:04:28.249Z,86.70
2018-08-13T14:06:55.963Z,87.60
2018-08-13T14:09:23.487Z,87.50
2018-08-13T14:11:53.269Z,87.80
2018-08-13T14:14:20.917Z,88.00
2018-08-13T14:16:49.019Z,87.80
2018-08-13T14:19:16.786Z,87.50
2018-08-13T14:21:44.272Z,87.30
2018-08-13T14:24:11.700Z,87.20
2018-08-13T14:26:39.202Z,86.70
2018-08-13T14:29:06.713Z,86.30
2018-08-13T14:31:34.577Z,86.70
2018-08-13T14:34:02.086Z,87.10
2018-08-13T14:36:29.761Z,87.20
2018-08-13T14:38:57.570Z,87.20
2018-08-13T14:41:24.966Z,87.40
2018-08-13T14:43:52.460Z,88.40
2018-08-13T14:46:20.240Z,87.20
2018-08-13T14:48:47.785Z,87.00
2018-08-13T14:51:15.634Z,86.70
2018-08-13T14:53:43.484Z,86.70
2018-08-13T14:56:11.131Z,86.20
2018-08-13T14:58:38.864Z,86.10
2018-08-13T15:01:06.551Z,87.00
2018-08-13T15:03:35.369Z,86.00
2018-08-13T15:06:03.167Z,86.80
2018-08-13T15:08:30.543Z,86.10
2018-08-13T15:10:58.242Z,86.50
2018-08-13T15:13:25.944Z,86.60
2018-08-13T15:15:53.258Z,86.70
2018-08-13T15:18:20.995Z,86.60
2018-08-13T15:20:48.758Z,86.80
2018-08-13T15:23:16.251Z,86.70
2018-08-13T15:25:43.932Z,86.70
2018-08-13T15:28:11.570Z,86.60
2018-08-13T15:30:39.224Z,86.50
2018-08-13T15:33:06.621Z,87.20
2018-08-13T15:35:34.196Z,86.70
2018-08-13T15:38:01.613Z,87.00
2018-08-13T15:40:29.607Z,87.00
2018-08-13T15:42:57.110Z,86.70
2018-08-13T15:45:24.513Z,86.70
2018-08-13T15:47:52.060Z,88.10
2018-08-13T15:50:20.795Z,88.20
2018-08-13T15:52:48.684Z,87.80
2018-08-13T15:55:17.211Z,88.80
2018-08-13T15:57:45.138Z,90.60
2018-08-13T16:00:22.287Z,90.70
2018-08-13T16:02:51.930Z,91.50
2018-08-13T16:05:20.019Z,91.90
2018-08-13T16:07:47.919Z,92.20
2018-08-13T16:10:16.624Z,91.60
2018-08-13T16:12:44.994Z,91.10
2018-08-13T16:15:12.780Z,91.20
2018-08-13T16:17:40.832Z,90.90
2018-08-13T16:20:14.124Z,90.60
2018-08-13T16:22:42.346Z,90.70
2018-08-13T16:25:10.390Z,90.80
2018-08-13T16:27:38.243Z,90.80
2018-08-13T16:30:15.459Z,90.80
2018-08-13T16:32:43.347Z,90.80
2018-08-13T16:35:10.746Z,91.00
2018-08-13T16:37:38.185Z,91.20
2018-08-13T16:40:05.899Z,91.30
2018-08-13T16:42:33.527Z,91.20
2018-08-13T16:45:00.946Z,91.20
2018-08-13T16:47:28.392Z,91.40
2018-08-13T16:51:36.766Z,91.40
2018-08-13T16:54:04.229Z,91.50
2018-08-13T16:56:31.740Z,91.40
2018-08-13T16:58:59.120Z,91.70
2018-08-13T17:01:26.857Z,91.40
2018-08-13T17:03:54.342Z,91.20
2018-08-13T17:06:22.027Z,91.00
2018-08-13T17:08:49.541Z,90.80
2018-08-13T17:11:17.108Z,90.90
2018-08-13T17:13:44.956Z,90.80
2018-08-13T17:16:12.689Z,91.40
2018-08-13T17:18:40.625Z,92.20
2018-08-13T17:21:08.218Z,93.50
2018-08-13T17:23:35.844Z,94.00
2018-08-13T17:26:03.356Z,94.60
2018-08-13T17:28:31.318Z,94.80
2018-08-13T17:30:58.692Z,95.20
2018-08-13T17:33:26.383Z,95.20
2018-08-13T17:35:54.069Z,95.60
2018-08-13T17:38:21.740Z,95.90
2018-08-13T17:40:49.127Z,95.90
2018-08-13T17:43:16.675Z,96.20
2018-08-13T17:45:45.970Z,96.10
2018-08-13T17:48:13.341Z,96.50
2018-08-13T17:50:40.763Z,96.80
2018-08-13T17:53:09.314Z,96.90
2018-08-13T17:55:36.733Z,97.00
2018-08-13T17:58:06.085Z,97.50
2018-08-13T18:00:33.891Z,97.50
2018-08-13T18:03:01.265Z,97.50
2018-08-13T18:05:29.047Z,97.90
2018-08-13T18:07:57.416Z,97.60
2018-08-13T18:10:26.570Z,97.60
2018-08-13T18:12:55.015Z,97.40
2018-08-13T18:15:22.740Z,97.30
2018-08-13T18:17:50.117Z,97.40
2018-08-13T18:20:17.600Z,97.40
2018-08-13T18:22:45.917Z,97.10
2018-08-13T18:25:14.232Z,97.00
2018-08-13T18:27:42.832Z,97.00
2018-08-13T18:30:12.373Z,97.00
2018-08-13T18:32:39.840Z,96.80
2018-08-13T18:35:07.805Z,96.90
2018-08-13T18:37:36.647Z,96.80
2018-08-13T18:40:06.603Z,96.90
2018-08-13T18:42:34.264Z,96.80
2018-08-13T18:45:01.881Z,96.80
2018-08-13T18:47:29.280Z,96.90
2018-08-13T18:49:56.665Z,96.70
2018-08-13T18:52:24.040Z,96.90
2018-08-13T18:54:51.472Z,96.80
2018-08-13T18:57:19.174Z,96.80
2018-08-13T18:59:47.078Z,96.60
2018-08-13T19:02:14.646Z,96.60
2018-08-13T19:04:42.099Z,96.50
2018-08-13T19:07:09.454Z,96.50
2018-08-13T19:09:37.063Z,96.60
2018-08-13T19:12:04.808Z,96.40
2018-08-13T19:14:32.400Z,96.50
2018-08-13T19:17:00.041Z,96.60
2018-08-13T19:19:27.961Z,96.80
2018-08-13T19:21:55.434Z,96.80
2018-08-13T19:24:22.943Z,96.50
2018-08-13T19:26:50.396Z,96.70
2018-08-13T19:29:18.088Z,96.80
2018-08-13T19:31:45.872Z,96.90
2018-08-13T19:34:13.409Z,96.90
2018-08-13T19:36:40.805Z,97.10
2018-08-13T19:39:10.395Z,96.90
2018-08-13T19:41:38.012Z,96.90
2018-08-13T19:44:05.451Z,97.00
2018-08-13T19:46:33.070Z,96.90
2018-08-13T19:49:00.487Z,96.90
2018-08-13T19:51:28.313Z,96.90
2018-08-13T19:53:55.889Z,97.00
2018-08-13T19:56:23.495Z,97.00
2018-08-13T19:58:51.091Z,97.00
2018-08-13T20:01:19.246Z,97.00
2018-08-13T20:03:46.640Z,96.90
2018-08-13T20:06:14.167Z,96.90
2018-08-13T20:08:42.037Z,96.90
2018-08-13T20:11:09.509Z,96.90
2018-08-13T20:13:37.094Z,96.90
2018-08-13T20:16:05.012Z,97.10
2018-08-13T20:18:32.405Z,97.00
2018-08-13T20:20:59.807Z,97.00
2018-08-13T20:23:27.191Z,97.20
2018-08-13T20:25:54.667Z,97.40
2018-08-13T20:28:22.040Z,97.40
2018-08-13T20:30:49.479Z,97.40
2018-08-13T20:33:17.063Z,97.40
2018-08-13T20:35:44.493Z,97.50
2018-08-13T20:38:11.863Z,97.70
2018-08-13T20:40:39.364Z,97.70
2018-08-13T20:43:06.936Z,97.80
2018-08-13T20:45:34.391Z,97.70
2018-08-13T20:48:01.791Z,98.00
2018-08-13T20:50:29.164Z,98.10
2018-08-13T20:52:56.544Z,98.00
2018-08-13T20:55:25.436Z,98.10
2018-08-13T20:57:52.854Z,98.20
2018-08-13T21:00:21.801Z,98.50
2018-08-13T21:02:49.260Z,98.40
2018-08-13T21:05:17.057Z,98.70
2018-08-13T21:07:45.397Z,99.30
2018-08-13T21:10:14.468Z,99.80
2018-08-13T21:12:41.855Z,99.90
2018-08-13T21:15:11.132Z,99.90
2018-08-13T21:17:38.799Z,99.90
2018-08-13T21:20:06.789Z,99.90
2018-08-13T21:22:34.686Z,99.90
2018-08-13T21:25:02.036Z,99.90
2018-08-13T21:27:29.465Z,99.90
2018-08-13T21:33:27.764Z,99.90
2018-08-13T21:35:55.127Z,99.90
2018-08-13T21:38:22.538Z,99.90
2018-08-13T21:40:49.955Z,99.90
2018-08-13T21:43:17.571Z,99.90
2018-08-13T21:45:44.953Z,99.90
2018-08-13T21:48:12.343Z,99.90
2018-08-13T21:50:39.679Z,99.90
2018-08-13T21:53:07.105Z,99.90
2018-08-13T21:55:34.485Z,99.90
2018-08-13T21:58:01.897Z,99.90
2018-08-13T22:00:35.343Z,99.90
2018-08-13T22:03:03.105Z,99.90
2018-08-13T22:05:30.460Z,99.90
2018-08-13T22:07:57.988Z,99.90
2018-08-13T22:10:25.377Z,99.90
2018-08-13T22:12:52.752Z,99.90
2018-08-13T22:15:36.148Z,99.90
2018-08-13T22:18:05.153Z,99.90
2018-08-13T22:20:33.785Z,99.90
2018-08-13T22:23:01.827Z,99.90
2018-08-13T22:25:31.657Z,99.90
2018-08-13T22:27:59.491Z,99.90
2018-08-13T22:30:27.297Z,99.90
2018-08-13T22:32:54.655Z,99.90
2018-08-13T22:35:22.039Z,99.90
2018-08-13T22:37:49.386Z,99.90
2018-08-13T22:40:19.419Z,99.90
2018-08-13T22:42:46.810Z,99.90
2018-08-13T22:45:16.021Z,99.90
2018-08-13T22:47:43.395Z,99.90
2018-08-13T22:50:10.773Z,99.90
2018-08-13T22:52:38.118Z,99.90
2018-08-13T22:55:07.374Z,99.90
2018-08-13T22:57:34.757Z,99.90
2018-08-13T23:00:02.232Z,99.90
2018-08-13T23:02:29.573Z,99.90
2018-08-13T23:04:57.160Z,99.90
2018-08-13T23:07:24.630Z,99.90
2018-08-13T23:09:51.964Z,99.90
2018-08-13T23:12:19.332Z,99.90
2018-08-13T23:14:46.793Z,99.90
2018-08-13T23:17:14.303Z,99.90
2018-08-13T23:19:41.664Z,99.90
2018-08-13T23:22:08.995Z,99.90
2018-08-13T23:24:36.383Z,99.90
2018-08-13T23:27:03.912Z,99.90
2018-08-13T23:29:31.252Z,99.90
2018-08-13T23:31:58.603Z,99.90
2018-08-13T23:34:26.008Z,99.90
2018-08-13T23:36:53.392Z,99.90
2018-08-13T23:39:20.722Z,99.90
2018-08-13T23:41:48.076Z,99.90
2018-08-13T23:44:15.431Z,99.90
2018-08-13T23:46:42.796Z,99.90
2018-08-13T23:49:10.153Z,99.90
2018-08-13T23:51:37.555Z,99.90
2018-08-13T23:54:04.905Z,99.90
2018-08-13T23:56:32.276Z,99.90
2018-08-13T23:58:59.673Z,99.90
